Rio Rico, Texas
Current Conditions -  °F | °C
As of 12:15 AM on Wednesday 26 Nov 2014 (Local Time) from KT65 Reporting Station
Clear Clear  
Wind Chill: 49°   Ceiling: Unl
Heat Index: 49°   Visibility: 7mi
Dew Point: 40°   Wind: 3mph
Humidity: 72%   Direction: 180°S
Pressure: 30.3"   Gusts: NA
Location:  26.1456°N, 97.91°W
Report Text: KT65 260615Z AUTO 18003KT 7SM CLR 09/05 A3030 RMK AO2 T00940046
Loading
Personal Weather Stations






























Interactive Weather Map New forecast layout! Learn more

10-Day Weather Forecast

Advertisements
Track Severe Weather on mobile